Cliffwood, New Jersey
Current Conditions -  °F | °C
As of 12:55 AM on Sunday 26 Oct 2014 (Local Time) from KLDJ Reporting Station
Overcast Overcast  
Wind Chill: 64°   Ceiling: 8000
Heat Index: 64°   Visibility: 10mi
Dew Point: 48°   Wind: 6mph
Humidity: 58%   Direction: 280°W
Pressure: 29.59"   Gusts: NA
Location:  40.44°N, 74.24°W
Report Text: KLDJ 260455Z AUTO 28005KT 10SM SCT050 BKN080 OVC110 18/09 A2959 RMK AO2 T01750091
Loading
Personal Weather Stations






























Interactive Weather Map
Tropical Storm Tracking
New forecast layout! Learn more

10-Day Weather Forecast

Advertisements
Track Severe Weather on mobile